Time;durP1;ratioP1;P1;durP2;ratioP2;P2;SDS_P1;SDS_P2;PMS_P1;PMS_P2;Temp;Humidity;BMP_temperature;BMP_pressure;BME280_temperature;BME280_humidity;BME280_pressure;Samples;Min_cycle;Max_cycle;Signal;HPM_P1;HPM_P2
2022/03/14 00:00:45;;;;;;;16.20;8.73;;;4.60;99.90;;;;;;4896938;29;20417;-51
2022/03/14 00:03:11;;;;;;;16.37;9.20;;;4.60;99.90;;;;;;4896701;29;20412;-52
2022/03/14 00:05:37;;;;;;;14.40;9.13;;;4.60;99.90;;;;;;4896450;29;20532;-51
2022/03/14 00:08:03;;;;;;;18.40;9.03;;;4.50;99.90;;;;;;4896680;29;20207;-52
2022/03/14 00:10:29;;;;;;;14.67;8.73;;;4.60;99.90;;;;;;4896653;29;20176;-53
2022/03/14 00:12:56;;;;;;;15.93;8.67;;;4.60;99.90;;;;;;4896223;29;20424;-51
2022/03/14 00:15:22;;;;;;;15.80;8.40;;;4.60;99.90;;;;;;4896758;29;20492;-51
2022/03/14 00:17:49;;;;;;;15.27;8.53;;;4.50;99.90;;;;;;4896578;29;20435;-51
2022/03/14 00:20:15;;;;;;;13.97;8.23;;;4.60;99.90;;;;;;4896380;29;20977;-51
2022/03/14 00:22:41;;;;;;;16.27;8.20;;;4.60;99.90;;;;;;4896502;29;20428;-51
2022/03/14 00:25:09;;;;;;;13.77;8.63;;;4.60;99.90;;;;;;4896237;29;20456;-52
2022/03/14 00:27:35;;;;;;;14.27;8.30;;;4.60;99.90;;;;;;4896335;29;20751;-51
2022/03/14 00:30:05;;;;;;;15.57;8.47;;;4.60;99.90;;;;;;4896481;29;20455;-51
2022/03/14 00:32:30;;;;;;;21.17;9.00;;;4.60;99.90;;;;;;4895857;29;20753;-52
2022/03/14 00:34:57;;;;;;;17.20;8.10;;;4.60;99.90;;;;;;4895972;29;20486;-52
2022/03/14 00:37:23;;;;;;;13.90;8.27;;;4.60;99.90;;;;;;4896063;29;20184;-51
2022/03/14 00:39:49;;;;;;;13.63;8.07;;;4.70;99.90;;;;;;4896190;29;20400;-51
2022/03/14 00:42:15;;;;;;;16.80;8.20;;;4.60;99.90;;;;;;4896159;29;20275;-52
2022/03/14 00:44:41;;;;;;;13.00;7.63;;;4.60;99.90;;;;;;4896008;29;20551;-52
2022/03/14 00:47:07;;;;;;;12.83;7.77;;;4.60;99.90;;;;;;4896036;29;20483;-51
2022/03/14 00:49:34;;;;;;;16.27;8.70;;;4.60;99.90;;;;;;4895921;29;20420;-52
2022/03/14 00:51:59;;;;;;;11.37;7.50;;;4.60;99.90;;;;;;4895889;29;20503;-52
2022/03/14 00:54:25;;;;;;;13.30;8.03;;;4.70;99.90;;;;;;4895862;29;20971;-51
2022/03/14 00:56:50;;;;;;;15.57;8.60;;;4.80;99.90;;;;;;4895966;29;20164;-51
2022/03/14 00:59:16;;;;;;;13.70;8.00;;;4.70;99.90;;;;;;4896230;29;20235;-51
2022/03/14 01:01:41;;;;;;;16.70;8.60;;;4.70;99.90;;;;;;4895197;29;20183;-52
2022/03/14 01:04:07;;;;;;;13.83;7.90;;;4.70;99.90;;;;;;4895791;29;20238;-52
2022/03/14 01:06:34;;;;;;;15.77;8.47;;;4.80;99.90;;;;;;4895668;29;20230;-51
2022/03/14 01:08:59;;;;;;;13.63;8.23;;;4.80;99.90;;;;;;4895827;29;20267;-51
2022/03/14 01:11:25;;;;;;;13.03;7.53;;;4.90;99.90;;;;;;4882834;29;20569;-52
2022/03/14 01:13:50;;;;;;;15.93;8.27;;;4.90;99.90;;;;;;4876966;29;20180;-51
2022/03/14 01:16:16;;;;;;;15.30;8.53;;;4.90;99.90;;;;;;4876628;29;20631;-51
2022/03/14 01:18:42;;;;;;;13.43;8.10;;;4.90;99.90;;;;;;4876884;29;20196;-51
2022/03/14 01:21:07;;;;;;;22.00;8.83;;;5.00;99.90;;;;;;4876868;29;20168;-51
2022/03/14 01:23:33;;;;;;;15.50;8.70;;;5.00;99.90;;;;;;4877123;29;20817;-51
2022/03/14 01:25:58;;;;;;;15.50;8.60;;;5.00;99.90;;;;;;4876925;29;20223;-51
2022/03/14 01:28:24;;;;;;;14.50;8.10;;;5.10;99.90;;;;;;4876456;29;20193;-52
2022/03/14 01:30:50;;;;;;;16.73;8.80;;;5.20;99.90;;;;;;4878084;29;20259;-52
2022/03/14 01:33:16;;;;;;;12.50;8.30;;;5.30;99.90;;;;;;4887097;29;20180;-52
2022/03/14 01:35:41;;;;;;;13.80;7.50;;;5.40;99.90;;;;;;4876555;29;20492;-51
2022/03/14 01:38:07;;;;;;;15.37;8.17;;;5.30;99.90;;;;;;4877007;29;20181;-51
2022/03/14 01:40:33;;;;;;;13.47;8.07;;;5.30;99.90;;;;;;4877021;29;20233;-56
2022/03/14 01:42:59;;;;;;;17.87;8.90;;;5.30;99.90;;;;;;4876954;29;20433;-52
2022/03/14 01:45:24;;;;;;;14.57;7.80;;;5.30;99.90;;;;;;4876522;29;20237;-51
2022/03/14 01:47:51;;;;;;;16.20;8.20;;;5.20;99.90;;;;;;4860121;29;20177;-51
2022/03/14 01:50:17;;;;;;;16.93;8.00;;;5.20;99.90;;;;;;4876692;29;20654;-51
2022/03/14 01:52:44;;;;;;;10.77;7.10;;;5.20;99.90;;;;;;4876868;29;20409;-51
2022/03/14 01:55:13;;;;;;;14.37;8.53;;;5.30;99.90;;;;;;4876769;29;20438;-52
2022/03/14 01:57:40;;;;;;;13.47;7.77;;;5.20;99.90;;;;;;4887127;29;20466;-51
2022/03/14 02:00:08;;;;;;;15.20;7.90;;;5.20;99.90;;;;;;4868628;29;20464;-52
2022/03/14 02:02:34;;;;;;;12.43;8.00;;;5.10;99.90;;;;;;4889327;29;20539;-51
2022/03/14 02:05:00;;;;;;;13.37;8.50;;;5.10;99.90;;;;;;4890316;29;20491;-51
2022/03/14 02:07:26;;;;;;;15.33;8.87;;;5.10;99.90;;;;;;4887535;29;20990;-51
2022/03/14 02:09:52;;;;;;;13.87;8.37;;;5.00;99.90;;;;;;4892451;29;20569;-51
2022/03/14 02:12:18;;;;;;;14.10;7.67;;;4.90;99.90;;;;;;4889349;29;20451;-51
2022/03/14 02:14:44;;;;;;;15.17;8.37;;;4.90;99.90;;;;;;4886280;29;20535;-51
2022/03/14 02:17:14;;;;;;;14.20;8.00;;;4.80;99.90;;;;;;4893420;29;20507;-51
2022/03/14 02:19:41;;;;;;;14.37;8.13;;;4.80;99.90;;;;;;4889674;29;20445;-58
2022/03/14 02:22:13;;;;;;;14.70;9.17;;;4.80;99.90;;;;;;4886407;29;20457;-51
2022/03/14 02:24:49;;;;;;;13.30;7.53;;;4.70;99.90;;;;;;4894316;29;20451;-50
2022/03/14 02:27:15;;;;;;;14.33;8.60;;;4.80;99.90;;;;;;4889886;29;20926;-50
2022/03/14 02:29:41;;;;;;;13.60;8.17;;;4.90;99.90;;;;;;4892491;29;20447;-50
2022/03/14 02:32:08;;;;;;;14.30;8.60;;;4.90;99.90;;;;;;4892234;29;20452;-50
2022/03/14 02:34:34;;;;;;;22.97;8.90;;;4.90;99.90;;;;;;4897963;29;20630;-51
2022/03/14 02:37:02;;;;;;;13.90;7.93;;;4.80;99.90;;;;;;4898195;29;20870;-50
2022/03/14 02:39:28;;;;;;;17.43;8.87;;;4.80;99.90;;;;;;4898509;29;20236;-50
2022/03/14 02:41:54;;;;;;;14.77;8.53;;;4.80;99.90;;;;;;4897868;29;20456;-52
2022/03/14 02:44:19;;;;;;;14.63;9.13;;;4.80;99.90;;;;;;4898364;29;20165;-51
2022/03/14 02:46:45;;;;;;;11.33;7.53;;;4.80;99.90;;;;;;4898063;29;20670;-52
2022/03/14 02:49:12;;;;;;;15.30;8.73;;;4.80;99.90;;;;;;4897882;29;20188;-52
2022/03/14 02:51:39;;;;;;;12.30;8.20;;;4.70;99.90;;;;;;4898082;29;20334;-52
2022/03/14 02:54:05;;;;;;;14.43;8.30;;;4.80;99.90;;;;;;4881184;29;20439;-53
2022/03/14 02:56:32;;;;;;;14.57;8.23;;;4.80;99.90;;;;;;4897812;29;20439;-51
2022/03/14 02:58:58;;;;;;;13.63;8.07;;;4.80;99.90;;;;;;4898148;29;20430;-51
2022/03/14 03:01:23;;;;;;;15.00;8.40;;;4.80;99.90;;;;;;4898141;29;20440;-51
2022/03/14 03:03:49;;;;;;;15.77;8.67;;;4.80;99.90;;;;;;4898131;29;20202;-51
2022/03/14 03:06:17;;;;;;;16.90;8.03;;;4.80;99.90;;;;;;4898034;29;20556;-52
2022/03/14 03:08:44;;;;;;;23.00;9.20;;;4.80;99.90;;;;;;4898097;29;20914;-51
2022/03/14 03:11:11;;;;;;;15.10;8.53;;;4.80;99.90;;;;;;4897960;29;20419;-51
2022/03/14 03:13:38;;;;;;;16.07;8.60;;;4.80;99.90;;;;;;4898007;29;20432;-51
2022/03/14 03:16:04;;;;;;;21.00;8.90;;;4.90;99.90;;;;;;4897599;29;20420;-51
2022/03/14 03:18:29;;;;;;;13.77;8.20;;;4.80;99.90;;;;;;4897708;29;20817;-51
2022/03/14 03:20:55;;;;;;;14.77;8.50;;;4.90;99.90;;;;;;4897449;29;20427;-53
2022/03/14 03:23:20;;;;;;;15.00;8.87;;;4.90;99.90;;;;;;4880222;29;20199;-51
2022/03/14 03:25:46;;;;;;;15.13;8.53;;;4.80;99.90;;;;;;4897245;29;20215;-51
2022/03/14 03:28:11;;;;;;;20.30;9.07;;;4.80;99.90;;;;;;4880422;29;20180;-51
2022/03/14 03:30:37;;;;;;;16.47;9.23;;;4.70;99.90;;;;;;4897513;29;20184;-51
2022/03/14 03:33:02;;;;;;;16.90;8.47;;;4.70;99.90;;;;;;4897541;29;20195;-51
2022/03/14 03:35:28;;;;;;;18.70;8.70;;;4.70;99.90;;;;;;4897259;29;20239;-51
2022/03/14 03:37:54;;;;;;;14.93;9.03;;;4.70;99.90;;;;;;4897428;29;20196;-51
2022/03/14 03:40:19;;;;;;;15.03;9.23;;;4.60;99.90;;;;;;4897061;29;20180;-51
2022/03/14 03:42:45;;;;;;;13.40;7.73;;;4.60;99.90;;;;;;4897281;29;20180;-51
2022/03/14 03:45:13;;;;;;;21.10;8.43;;;4.60;99.90;;;;;;4897146;29;20211;-51
2022/03/14 03:47:40;;;;;;;16.47;8.83;;;4.60;99.90;;;;;;4897562;29;20179;-51
2022/03/14 03:50:06;;;;;;;18.80;9.60;;;4.60;99.90;;;;;;4897006;29;20755;-51
2022/03/14 03:52:31;;;;;;;16.10;8.23;;;4.50;99.90;;;;;;4896979;29;20510;-51
2022/03/14 03:54:57;;;;;;;16.87;8.70;;;4.50;99.90;;;;;;4880204;29;20945;-52
2022/03/14 03:57:22;;;;;;;15.87;8.10;;;4.40;99.90;;;;;;4897088;29;20180;-51
2022/03/14 03:59:48;;;;;;;18.83;9.07;;;4.40;99.90;;;;;;4897058;29;20306;-51
2022/03/14 04:02:19;;;;;;;18.07;9.17;;;4.30;99.90;;;;;;4897083;29;20624;-51
2022/03/14 04:04:49;;;;;;;19.73;9.50;;;4.30;99.90;;;;;;4897312;29;20219;-52
2022/03/14 04:07:19;;;;;;;14.53;8.87;;;4.30;99.90;;;;;;4896499;29;20488;-51
2022/03/14 04:09:46;;;;;;;14.33;8.80;;;4.20;99.90;;;;;;4896557;29;20923;-51
2022/03/14 04:12:12;;;;;;;17.37;9.27;;;4.20;99.90;;;;;;4896891;29;20480;-53
2022/03/14 04:14:38;;;;;;;16.17;9.80;;;4.20;99.90;;;;;;4896893;29;20507;-51
2022/03/14 04:17:04;;;;;;;16.73;9.00;;;4.20;99.90;;;;;;4896589;29;20557;-50
2022/03/14 04:19:30;;;;;;;13.80;8.73;;;4.10;99.90;;;;;;4896473;29;20409;-50
2022/03/14 04:21:56;;;;;;;12.93;7.90;;;4.10;99.90;;;;;;4896444;29;20503;-50
2022/03/14 04:24:22;;;;;;;14.17;8.63;;;4.00;99.90;;;;;;4896448;29;20634;-50
2022/03/14 04:26:48;;;;;;;16.10;9.50;;;4.00;99.90;;;;;;4896658;29;20503;-50
2022/03/14 04:29:14;;;;;;;16.50;9.03;;;3.90;99.90;;;;;;4896585;29;20303;-50
2022/03/14 04:31:40;;;;;;;17.37;9.93;;;3.80;99.90;;;;;;4895181;29;20192;-51
2022/03/14 04:34:05;;;;;;;15.53;9.03;;;3.80;99.90;;;;;;4895978;29;20970;-50
2022/03/14 04:36:31;;;;;;;15.70;9.40;;;3.70;99.90;;;;;;4896077;29;20187;-50
2022/03/14 04:38:57;;;;;;;17.07;9.70;;;3.70;99.90;;;;;;4896143;29;20199;-50
2022/03/14 04:41:22;;;;;;;16.37;9.43;;;3.70;99.90;;;;;;4894418;29;20195;-50
2022/03/14 04:43:47;;;;;;;18.50;9.93;;;3.80;99.90;;;;;;4889702;29;20248;-50
2022/03/14 04:46:13;;;;;;;16.50;9.10;;;3.80;99.90;;;;;;4888051;29;20251;-51
2022/03/14 04:48:39;;;;;;;18.03;9.37;;;3.80;99.90;;;;;;4894756;29;20215;-51
2022/03/14 04:51:04;;;;;;;15.40;9.03;;;3.90;99.90;;;;;;4889916;29;20342;-50
2022/03/14 04:53:30;;;;;;;17.70;9.47;;;3.90;99.90;;;;;;4888187;29;20184;-50
2022/03/14 04:55:55;;;;;;;18.47;10.00;;;3.90;99.90;;;;;;4892606;29;20564;-51
2022/03/14 04:58:21;;;;;;;18.13;10.03;;;3.80;99.90;;;;;;4888062;29;20199;-50
2022/03/14 05:00:47;;;;;;;20.80;9.90;;;3.70;99.90;;;;;;4889103;29;20195;-50
2022/03/14 05:03:13;;;;;;;20.23;10.17;;;3.80;99.90;;;;;;4887581;29;20711;-51
2022/03/14 05:05:39;;;;;;;17.73;9.63;;;3.80;99.90;;;;;;4876752;29;20540;-51
2022/03/14 05:08:05;;;;;;;17.70;9.97;;;3.70;99.90;;;;;;4888802;29;20443;-51
2022/03/14 05:10:32;;;;;;;17.80;9.60;;;3.70;99.90;;;;;;4892720;29;20520;-50
2022/03/14 05:13:01;;;;;;;23.17;10.57;;;3.70;99.90;;;;;;4888073;29;20932;-50
2022/03/14 05:15:27;;;;;;;18.97;10.20;;;3.60;99.90;;;;;;4883525;29;20456;-50
2022/03/14 05:17:53;;;;;;;19.50;9.90;;;3.60;99.90;;;;;;4881711;29;20439;-50
2022/03/14 05:20:19;;;;;;;20.03;10.30;;;3.70;99.90;;;;;;4885556;29;20456;-50
2022/03/14 05:22:48;;;;;;;19.93;10.23;;;3.70;99.90;;;;;;4888665;29;20462;-50
2022/03/14 05:25:14;;;;;;;16.83;10.20;;;3.70;99.90;;;;;;4893287;29;20271;-50
2022/03/14 05:27:40;;;;;;;19.40;10.67;;;3.60;99.90;;;;;;4886270;29;20443;-50
2022/03/14 05:30:09;;;;;;;16.97;9.63;;;3.60;99.90;;;;;;4886148;29;20448;-50
2022/03/14 05:32:36;;;;;;;21.00;10.93;;;3.60;99.90;;;;;;4889022;29;20252;-50
2022/03/14 05:35:02;;;;;;;17.07;9.60;;;3.60;99.90;;;;;;4893623;29;20484;-50
2022/03/14 05:37:28;;;;;;;16.50;9.40;;;3.50;99.90;;;;;;4884373;29;20505;-51
2022/03/14 05:39:54;;;;;;;21.00;9.87;;;3.40;99.90;;;;;;4891628;29;20455;-50
2022/03/14 05:42:19;;;;;;;15.50;10.20;;;3.50;99.90;;;;;;4882059;29;20196;-50
2022/03/14 05:44:45;;;;;;;18.97;9.67;;;3.40;99.90;;;;;;4886654;29;20250;-50
2022/03/14 05:47:11;;;;;;;16.70;9.03;;;3.40;99.90;;;;;;4886375;29;20187;-50
2022/03/14 05:49:37;;;;;;;16.57;9.17;;;3.40;99.90;;;;;;4888139;29;20453;-51
2022/03/14 05:52:04;;;;;;;19.77;10.23;;;3.40;99.90;;;;;;4894181;29;20439;-50
2022/03/14 05:54:29;;;;;;;16.77;10.30;;;3.30;99.90;;;;;;4893372;29;20582;-49
2022/03/14 05:56:55;;;;;;;23.70;10.17;;;3.20;99.90;;;;;;4896296;29;20460;-50
2022/03/14 05:59:21;;;;;;;18.40;10.13;;;3.20;99.90;;;;;;4892785;29;20192;-51
2022/03/14 06:01:50;;;;;;;16.70;9.90;;;3.20;99.90;;;;;;4893261;29;20194;-51
2022/03/14 06:04:16;;;;;;;20.60;11.20;;;3.30;99.90;;;;;;4891838;29;20444;-50
2022/03/14 06:06:42;;;;;;;21.77;10.23;;;3.30;99.90;;;;;;4894835;29;20479;-50
2022/03/14 06:09:07;;;;;;;16.40;9.83;;;3.40;99.90;;;;;;4891309;29;20462;-50
2022/03/14 06:11:33;;;;;;;24.60;11.30;;;3.50;99.90;;;;;;4895617;29;20443;-50
2022/03/14 06:13:58;;;;;;;23.53;9.80;;;3.40;99.90;;;;;;4896916;29;20191;-50
2022/03/14 06:16:25;;;;;;;22.67;10.63;;;3.40;99.90;;;;;;4891051;29;20212;-50
2022/03/14 06:18:51;;;;;;;17.63;10.53;;;3.40;99.90;;;;;;4893097;29;20626;-50
2022/03/14 06:21:16;;;;;;;20.80;10.83;;;3.50;99.90;;;;;;4894224;29;20467;-50
2022/03/14 06:23:42;;;;;;;20.23;10.70;;;3.60;99.90;;;;;;4891049;29;20197;-50
2022/03/14 06:26:08;;;;;;;22.33;11.40;;;3.70;99.90;;;;;;4895639;29;20223;-49
2022/03/14 06:28:33;;;;;;;26.07;10.70;;;3.80;99.90;;;;;;4887299;29;20188;-50
2022/03/14 06:30:59;;;;;;;20.70;10.27;;;3.90;99.90;;;;;;4888999;29;20203;-50
2022/03/14 06:33:24;;;;;;;19.20;10.40;;;4.00;99.90;;;;;;4889080;29;20259;-50
2022/03/14 06:35:50;;;;;;;17.30;10.27;;;4.20;99.90;;;;;;4885749;29;20232;-50
2022/03/14 06:38:16;;;;;;;27.83;11.37;;;4.30;99.90;;;;;;4886271;29;20197;-50
2022/03/14 06:40:42;;;;;;;18.03;10.03;;;4.40;99.90;;;;;;4891844;29;20451;-50
2022/03/14 06:43:10;;;;;;;19.63;10.80;;;4.60;99.90;;;;;;4895063;29;20219;-50
2022/03/14 06:45:39;;;;;;;24.60;11.17;;;4.70;99.90;;;;;;4890746;29;20477;-50
2022/03/14 06:48:06;;;;;;;21.97;10.30;;;4.80;99.90;;;;;;4888243;29;20444;-50
2022/03/14 06:50:32;;;;;;;22.57;11.73;;;4.80;99.90;;;;;;4892354;29;20435;-50
2022/03/14 06:52:58;;;;;;;20.83;11.47;;;4.90;99.90;;;;;;4892022;29;20440;-51
2022/03/14 06:55:24;;;;;;;34.50;12.03;;;5.10;99.90;;;;;;4889835;29;20447;-51
2022/03/14 06:57:50;;;;;;;23.33;11.30;;;5.20;99.90;;;;;;4895301;29;20790;-51
2022/03/14 07:00:16;;;;;;;23.03;12.03;;;5.30;99.90;;;;;;4891171;29;20513;-51
2022/03/14 07:02:42;;;;;;;24.37;11.37;;;5.20;99.90;;;;;;4890312;29;20448;-52
2022/03/14 07:05:13;;;;;;;24.63;12.60;;;5.20;99.90;;;;;;4886148;29;20990;-52
2022/03/14 07:07:40;;;;;;;23.30;12.20;;;5.30;99.90;;;;;;4884826;29;20187;-52
2022/03/14 07:10:07;;;;;;;20.67;11.60;;;5.40;99.90;;;;;;4891452;29;20502;-51
2022/03/14 07:12:36;;;;;;;21.87;11.93;;;5.60;99.90;;;;;;4889829;29;20452;-51
2022/03/14 07:15:01;;;;;;;19.20;11.87;;;5.70;99.90;;;;;;4885574;29;20449;-52
2022/03/14 07:17:27;;;;;;;21.10;11.73;;;5.80;99.90;;;;;;4891143;29;20455;-52
2022/03/14 07:19:52;;;;;;;24.07;11.30;;;5.90;99.90;;;;;;4895894;29;20214;-52
2022/03/14 07:22:19;;;;;;;19.90;11.40;;;5.90;99.90;;;;;;4890203;29;20191;-51
2022/03/14 07:24:46;;;;;;;22.93;11.90;;;6.10;99.90;;;;;;4893328;29;20195;-51
2022/03/14 07:27:12;;;;;;;30.23;11.90;;;6.50;99.90;;;;;;4891295;29;20486;-52
2022/03/14 07:29:38;;;;;;;22.07;11.63;;;6.90;99.90;;;;;;4892021;29;20794;-52
2022/03/14 07:32:05;;;;;;;24.40;11.73;;;7.10;99.90;;;;;;4894769;29;20496;-52
2022/03/14 07:34:31;;;;;;;22.47;11.90;;;7.10;99.90;;;;;;4887775;29;20877;-52
2022/03/14 07:36:57;;;;;;;26.97;12.23;;;7.20;99.90;;;;;;4887994;29;20459;-52
2022/03/14 07:39:22;;;;;;;22.07;12.47;;;7.20;99.90;;;;;;4882244;29;20763;-52
2022/03/14 07:41:48;;;;;;;24.63;11.60;;;7.60;99.90;;;;;;4887754;29;20463;-52
2022/03/14 07:44:13;;;;;;;27.30;12.30;;;7.90;99.90;;;;;;4890280;29;20196;-53
2022/03/14 07:46:39;;;;;;;24.20;11.00;;;8.20;99.90;;;;;;4889195;29;20611;-54
2022/03/14 07:49:05;;;;;;;22.77;12.20;;;8.50;99.90;;;;;;4890829;29;21103;-52
2022/03/14 07:51:32;;;;;;;22.73;11.53;;;8.50;99.90;;;;;;4893162;29;20219;-52
2022/03/14 07:53:58;;;;;;;21.10;12.30;;;8.40;99.90;;;;;;4890571;29;20534;-52
2022/03/14 07:56:23;;;;;;;21.30;12.07;;;8.50;99.90;;;;;;4893533;29;20551;-52
2022/03/14 07:58:49;;;;;;;22.03;13.30;;;9.20;99.90;;;;;;4888505;29;20235;-52
2022/03/14 08:01:17;;;;;;;26.70;12.27;;;9.60;99.90;;;;;;4886005;29;20267;-52
2022/03/14 08:03:42;;;;;;;25.23;12.03;;;9.80;99.90;;;;;;4890106;29;20184;-52
2022/03/14 08:06:19;;;;;;;26.40;12.67;;;10.10;99.90;;;;;;4887048;29;20480;-52
2022/03/14 08:08:44;;;;;;;21.70;12.43;;;10.50;99.90;;;;;;4885015;29;20248;-52
2022/03/14 08:11:11;;;;;;;24.60;12.30;;;10.80;99.90;;;;;;4888202;29;20452;-53
2022/03/14 08:13:36;;;;;;;23.20;12.67;;;10.70;99.90;;;;;;4893103;29;20279;-53
2022/03/14 08:16:02;;;;;;;21.67;12.40;;;10.80;99.90;;;;;;4889334;29;21259;-52
2022/03/14 08:18:28;;;;;;;24.83;12.00;;;10.70;99.90;;;;;;4888716;29;20195;-52
2022/03/14 08:20:57;;;;;;;20.70;12.30;;;10.20;99.90;;;;;;4893766;29;20530;-52
2022/03/14 08:23:23;;;;;;;25.37;11.47;;;10.00;99.90;;;;;;4894611;29;20222;-52
2022/03/14 08:25:49;;;;;;;23.97;12.00;;;9.70;99.90;;;;;;4888781;29;20566;-53
2022/03/14 08:28:14;;;;;;;21.00;11.20;;;9.60;99.90;;;;;;4892910;29;20462;-52
2022/03/14 08:30:41;;;;;;;23.03;11.57;;;9.70;99.90;;;;;;4888233;29;20191;-52
2022/03/14 08:33:07;;;;;;;20.57;12.07;;;9.60;99.90;;;;;;4893639;29;20270;-52
2022/03/14 08:35:34;;;;;;;23.30;11.40;;;9.70;99.90;;;;;;4892723;29;20530;-52
2022/03/14 08:38:00;;;;;;;19.37;12.33;;;9.70;99.90;;;;;;4894389;29;20202;-52
2022/03/14 08:40:27;;;;;;;19.77;11.80;;;9.90;99.90;;;;;;4883582;29;20453;-52
2022/03/14 08:42:54;;;;;;;22.00;12.73;;;10.00;99.90;;;;;;4888984;29;20543;-52
2022/03/14 08:45:23;;;;;;;21.23;12.47;;;10.10;99.90;;;;;;4885223;29;20482;-52
2022/03/14 08:47:48;;;;;;;19.37;12.00;;;10.10;99.90;;;;;;4875105;29;20443;-52
2022/03/14 08:50:15;;;;;;;18.20;11.87;;;10.20;99.90;;;;;;4888338;29;20456;-52
2022/03/14 08:52:40;;;;;;;21.77;13.27;;;10.40;99.90;;;;;;4887879;29;20224;-52
2022/03/14 08:55:07;;;;;;;22.93;12.80;;;10.60;99.90;;;;;;4889305;29;20926;-52
2022/03/14 08:57:32;;;;;;;22.40;12.07;;;10.90;99.90;;;;;;4888135;29;20927;-52
2022/03/14 08:59:59;;;;;;;18.70;12.10;;;11.30;99.90;;;;;;4888061;29;20444;-52
2022/03/14 09:02:24;;;;;;;19.97;12.23;;;11.40;99.90;;;;;;4892663;29;21010;-52
2022/03/14 09:04:50;;;;;;;21.33;13.33;;;11.50;99.90;;;;;;4893796;29;20455;-52
2022/03/14 09:07:25;;;;;;;24.83;13.67;;;11.40;99.90;;;;;;4893834;29;20299;-53
2022/03/14 09:09:51;;;;;;;20.80;12.50;;;11.30;99.90;;;;;;4895659;29;20267;-52
2022/03/14 09:12:19;;;;;;;20.10;13.20;;;10.90;99.90;;;;;;4895692;29;20559;-53
2022/03/14 09:14:46;;;;;;;29.13;13.80;;;10.70;99.90;;;;;;4895635;29;20188;-52
2022/03/14 09:17:12;;;;;;;23.73;13.40;;;10.80;99.90;;;;;;4895751;29;20500;-52
2022/03/14 09:19:38;;;;;;;21.07;12.90;;;11.00;99.90;;;;;;4895301;29;20510;-52
2022/03/14 09:22:04;;;;;;;21.63;12.97;;;10.90;99.90;;;;;;4894949;29;20420;-52
2022/03/14 09:24:30;;;;;;;21.37;13.13;;;10.80;99.90;;;;;;4895526;29;20427;-52
2022/03/14 09:26:59;;;;;;;23.27;13.00;;;10.80;99.90;;;;;;4895760;29;20463;-52
2022/03/14 09:29:25;;;;;;;24.87;12.50;;;10.90;99.90;;;;;;4894900;29;20176;-51
2022/03/14 09:31:51;;;;;;;19.43;12.93;;;11.00;99.90;;;;;;4892168;29;20480;-53
2022/03/14 09:34:16;;;;;;;21.20;12.73;;;10.90;99.90;;;;;;4893766;29;20242;-53
2022/03/14 09:36:42;;;;;;;21.50;13.30;;;10.90;99.90;;;;;;4893278;29;20484;-52
2022/03/14 09:39:12;;;;;;;19.20;11.87;;;11.20;99.90;;;;;;4898679;29;20192;-53
2022/03/14 09:41:40;;;;;;;19.00;11.87;;;11.30;99.90;;;;;;4897519;29;20273;-53
2022/03/14 09:44:09;;;;;;;22.80;11.90;;;11.30;99.90;;;;;;4896728;29;20784;-52
2022/03/14 09:46:38;;;;;;;24.30;12.47;;;11.00;99.90;;;;;;4893957;29;20475;-53
2022/03/14 09:49:08;;;;;;;25.03;12.90;;;10.80;99.90;;;;;;4887456;29;20463;-52
2022/03/14 09:51:35;;;;;;;26.53;12.03;;;10.90;99.90;;;;;;4886844;29;20443;-52
2022/03/14 09:54:01;;;;;;;20.60;12.67;;;11.30;99.90;;;;;;4889452;29;20475;-51
2022/03/14 09:56:26;;;;;;;22.17;12.70;;;11.50;99.90;;;;;;4894011;29;20448;-53
2022/03/14 09:58:52;;;;;;;52.90;22.50;;;11.40;99.90;;;;;;4893598;29;21006;-52
2022/03/14 10:01:17;;;;;;;25.30;14.90;;;11.00;99.90;;;;;;4894851;29;20263;-52
2022/03/14 10:03:43;;;;;;;30.50;13.97;;;10.90;99.90;;;;;;4892759;29;20303;-52
2022/03/14 10:06:09;;;;;;;23.00;13.60;;;10.60;99.90;;;;;;4891160;29;20251;-53
2022/03/14 10:08:35;;;;;;;19.40;13.33;;;10.60;99.90;;;;;;4894395;29;20215;-53
2022/03/14 10:11:00;;;;;;;36.57;12.80;;;10.50;99.90;;;;;;4894528;29;20676;-54
2022/03/14 10:13:26;;;;;;;21.00;12.50;;;10.40;99.90;;;;;;4894405;29;20436;-52
2022/03/14 10:15:52;;;;;;;22.83;12.03;;;10.40;99.90;;;;;;4892595;29;20195;-52
2022/03/14 10:18:18;;;;;;;23.40;12.60;;;10.30;99.90;;;;;;4883179;29;20203;-52
2022/03/14 10:21:01;;;;;;;21.33;11.83;;;10.40;99.90;;;;;;4895119;29;20839;-52
2022/03/14 10:23:39;;;;;;;22.03;13.17;;;10.50;99.90;;;;;;4885380;29;20195;-53
2022/03/14 10:26:06;;;;;;;24.10;12.63;;;10.40;99.90;;;;;;4885600;29;20489;-53
2022/03/14 10:28:35;;;;;;;24.27;13.40;;;10.30;99.90;;;;;;4892299;29;20444;-52
2022/03/14 10:31:02;;;;;;;32.67;13.83;;;10.40;99.90;;;;;;4894106;29;20456;-53
2022/03/14 10:33:30;;;;;;;21.17;12.57;;;10.40;99.90;;;;;;4894145;29;20782;-52
2022/03/14 10:35:57;;;;;;;26.27;14.00;;;10.60;99.90;;;;;;4889622;29;20471;-52
2022/03/14 10:38:23;;;;;;;18.80;12.10;;;10.70;99.90;;;;;;4898793;29;20424;-53
2022/03/14 10:40:50;;;;;;;25.40;13.33;;;10.70;99.90;;;;;;4897992;29;20432;-52
2022/03/14 10:43:35;;;;;;;27.17;13.00;;;10.70;99.90;;;;;;4897534;29;20455;-53
2022/03/14 10:46:03;;;;;;;20.03;12.43;;;10.70;99.90;;;;;;4896840;29;20471;-52
2022/03/14 10:48:39;;;;;;;31.33;13.17;;;10.50;99.90;;;;;;4896548;29;20573;-52
2022/03/14 10:51:10;;;;;;;24.40;13.47;;;10.50;99.90;;;;;;4881552;29;21343;-52
2022/03/14 10:53:41;;;;;;;20.80;11.97;;;10.50;99.90;;;;;;4896076;29;20451;-53
2022/03/14 10:56:06;;;;;;;25.00;12.67;;;10.40;99.90;;;;;;4878200;29;20459;-53
2022/03/14 10:58:33;;;;;;;24.27;13.30;;;10.40;99.90;;;;;;4891783;29;20574;-52
2022/03/14 11:01:12;;;;;;;26.10;11.80;;;10.50;99.90;;;;;;4897864;29;20721;-52
2022/03/14 11:03:42;;;;;;;19.60;12.27;;;10.40;99.90;;;;;;4895396;29;20864;-52
2022/03/14 11:06:17;;;;;;;18.40;10.87;;;10.40;99.90;;;;;;4896980;29;20594;-52
2022/03/14 11:08:47;;;;;;;17.53;10.90;;;10.40;99.90;;;;;;4898007;29;20408;-52
2022/03/14 11:11:16;;;;;;;19.83;11.10;;;10.50;99.90;;;;;;4897996;29;20524;-52
2022/03/14 11:13:44;;;;;;;17.60;10.70;;;10.50;99.90;;;;;;4896933;29;20432;-52
2022/03/14 11:16:21;;;;;;;13.73;10.10;;;10.50;99.90;;;;;;4897367;29;20440;-52
2022/03/14 11:18:48;;;;;;;16.37;10.70;;;10.50;99.90;;;;;;4891820;29;20448;-52
2022/03/14 11:21:15;;;;;;;20.03;10.73;;;10.40;99.90;;;;;;4878813;29;20440;-52
2022/03/14 11:23:46;;;;;;;20.23;11.50;;;10.30;99.90;;;;;;4892151;29;20444;-52
2022/03/14 11:26:13;;;;;;;16.20;10.83;;;10.30;99.90;;;;;;4878576;29;20511;-53
2022/03/14 11:28:41;;;;;;;17.53;11.10;;;10.40;99.90;;;;;;4897174;29;20428;-52
2022/03/14 11:31:08;;;;;;;18.07;10.47;;;10.40;99.90;;;;;;4892105;29;20443;-52
2022/03/14 11:33:37;;;;;;;17.07;10.93;;;10.20;99.90;;;;;;4891223;29;20484;-53
2022/03/14 11:36:05;;;;;;;13.90;10.23;;;10.10;99.90;;;;;;4896197;29;20467;-52
2022/03/14 11:38:31;;;;;;;18.77;12.30;;;10.00;99.90;;;;;;4893987;29;20598;-56
2022/03/14 11:40:57;;;;;;;18.10;11.20;;;10.10;99.90;;;;;;4892957;29;20463;-53
2022/03/14 11:43:25;;;;;;;17.20;11.87;;;10.00;99.90;;;;;;4894332;29;20474;-54
2022/03/14 11:45:52;;;;;;;16.70;10.90;;;10.00;99.90;;;;;;4893059;29;20511;-53
2022/03/14 11:48:19;;;;;;;16.50;10.73;;;10.00;99.90;;;;;;4890830;29;20895;-52
2022/03/14 11:51:03;;;;;;;18.90;11.20;;;10.10;99.90;;;;;;4895589;29;20474;-53
2022/03/14 11:53:32;;;;;;;17.00;11.23;;;10.10;99.90;;;;;;4894400;29;20443;-53
2022/03/14 11:56:00;;;;;;;16.70;11.20;;;10.10;99.90;;;;;;4894583;29;20456;-53
2022/03/14 11:58:30;;;;;;;17.27;10.37;;;10.10;99.90;;;;;;4896005;29;20448;-52
2022/03/14 12:00:55;;;;;;;18.03;11.40;;;10.10;99.90;;;;;;4889338;29;20439;-52
2022/03/14 12:03:37;;;;;;;19.93;11.07;;;10.10;99.90;;;;;;4895562;29;20447;-52
2022/03/14 12:06:04;;;;;;;14.50;10.40;;;10.00;1.00;;;;;;4895837;29;20988;-53
2022/03/14 12:08:32;;;;;;;16.67;11.50;;;10.10;1.00;;;;;;4895832;29;20927;-53
2022/03/14 12:11:34;;;;;;;16.47;10.57;;;10.20;1.00;;;;;;4896231;29;20436;-53
2022/03/14 12:14:00;;;;;;;22.47;11.30;;;10.50;1.00;;;;;;4893322;29;20439;-53
2022/03/14 12:16:45;;;;;;;19.00;11.70;;;10.60;1.00;;;;;;4896259;29;20457;-53
2022/03/14 12:19:26;;;;;;;17.23;11.57;;;10.70;1.00;;;;;;4895624;29;20200;-53
2022/03/14 12:21:52;;;;;;;18.93;11.97;;;10.90;1.00;;;;;;4891870;29;20906;-53
2022/03/14 12:24:36;;;;;;;18.30;11.10;;;11.00;1.00;;;;;;4895730;29;20467;-52
2022/03/14 12:27:12;;;;;;;20.57;12.40;;;11.10;1.00;;;;;;4895270;29;20510;-52
2022/03/14 12:29:40;;;;;;;22.07;11.83;;;11.10;1.00;;;;;;4894819;29;20447;-53
2022/03/14 12:32:31;;;;;;;18.77;12.07;;;11.10;1.00;;;;;;4892005;29;20436;-52
2022/03/14 12:35:10;;;;;;;19.03;11.97;;;11.10;1.00;;;;;;4884617;29;20484;-53
2022/03/14 12:37:37;;;;;;;19.33;11.50;;;11.00;1.00;;;;;;4894378;29;20487;-52